Time;durP1;ratioP1;P1;durP2;ratioP2;P2;SDS_P1;SDS_P2;PMS_P1;PMS_P2;Temp;Humidity;BMP_temperature;BMP_pressure;BME280_temperature;BME280_humidity;BME280_pressure;Samples;Min_cycle;Max_cycle;Signal;HPM_P1;HPM_P2
2022/08/27 00:00:05;;;;;;;9.52;5.75;;;;;;;;;;5017507;28;20061;-48
2022/08/27 00:02:34;;;;;;;9.30;5.22;;;;;;;;;;5036181;28;20050;-47
2022/08/27 00:05:02;;;;;;;7.20;4.75;;;;;;;;;;5023469;28;20564;-47
2022/08/27 00:07:31;;;;;;;6.32;4.70;;;;;;;;;;5015767;28;20050;-47
2022/08/27 00:09:58;;;;;;;12.60;5.15;;;;;;;;;;5016457;28;20060;-48
2022/08/27 00:12:24;;;;;;;8.68;4.75;;;;;;;;;;5016142;28;20050;-50
2022/08/27 00:14:52;;;;;;;8.88;5.00;;;;;;;;;;5016366;28;20053;-47
2022/08/27 00:17:18;;;;;;;8.77;4.78;;;;;;;;;;5016106;28;20061;-47
2022/08/27 00:19:44;;;;;;;9.68;4.88;;;;;;;;;;5015892;28;20364;-47
2022/08/27 00:22:12;;;;;;;9.18;5.28;;;;;;;;;;5015654;28;20058;-47
2022/08/27 00:24:38;;;;;;;9.70;5.38;;;;;;;;;;5016027;28;20115;-48
2022/08/27 00:27:05;;;;;;;10.13;5.78;;;;;;;;;;5026976;28;20132;-50
2022/08/27 00:29:31;;;;;;;9.18;5.32;;;;;;;;;;5035671;28;20049;-47
2022/08/27 00:32:12;;;;;;;7.32;4.85;;;;;;;;;;5035205;28;20072;-48
2022/08/27 00:34:38;;;;;;;6.90;4.70;;;;;;;;;;5033108;28;20051;-47
2022/08/27 00:37:09;;;;;;;7.88;5.18;;;;;;;;;;5029624;28;20394;-47
2022/08/27 00:39:35;;;;;;;10.82;5.32;;;;;;;;;;5036040;28;20083;-49
2022/08/27 00:42:02;;;;;;;8.85;5.30;;;;;;;;;;5035644;28;20418;-47
2022/08/27 00:44:31;;;;;;;7.22;4.47;;;;;;;;;;5034979;28;20370;-48
2022/08/27 00:47:01;;;;;;;8.82;4.30;;;;;;;;;;5035399;28;20309;-48
2022/08/27 00:49:45;;;;;;;5.03;4.00;;;;;;;;;;5035193;28;20072;-47
2022/08/27 00:52:15;;;;;;;7.85;3.90;;;;;;;;;;5034801;28;20077;-49
2022/08/27 00:54:42;;;;;;;5.45;3.67;;;;;;;;;;5024316;28;20050;-51
2022/08/27 00:57:11;;;;;;;5.65;3.35;;;;;;;;;;5015338;28;20542;-48
2022/08/27 00:59:42;;;;;;;6.22;4.45;;;;;;;;;;5015246;28;20108;-47
2022/08/27 01:02:20;;;;;;;8.38;4.80;;;;;;;;;;5034744;28;20053;-49
2022/08/27 01:04:49;;;;;;;10.18;4.65;;;;;;;;;;5034822;28;20120;-49
2022/08/27 01:07:16;;;;;;;10.68;4.07;;;;;;;;;;5035152;28;20057;-48
2022/08/27 01:09:43;;;;;;;5.53;3.53;;;;;;;;;;5034834;28;20045;-47
2022/08/27 01:12:11;;;;;;;10.00;4.70;;;;;;;;;;5034973;28;20053;-51
2022/08/27 01:14:39;;;;;;;6.70;3.72;;;;;;;;;;5034179;28;20666;-48
2022/08/27 01:17:10;;;;;;;6.68;4.35;;;;;;;;;;5014702;28;20130;-50
2022/08/27 01:19:46;;;;;;;8.88;4.35;;;;;;;;;;5014973;28;20053;-48
2022/08/27 01:22:24;;;;;;;6.72;4.53;;;;;;;;;;5015033;28;20108;-47
2022/08/27 01:24:53;;;;;;;10.95;4.75;;;;;;;;;;5014692;28;20046;-48
2022/08/27 01:27:21;;;;;;;7.53;3.70;;;;;;;;;;5027353;28;20462;-48
2022/08/27 01:29:51;;;;;;;7.50;4.60;;;;;;;;;;5033811;28;20053;-50
2022/08/27 01:32:21;;;;;;;10.35;4.28;;;;;;;;;;5033947;28;20057;-51
2022/08/27 01:34:51;;;;;;;7.57;4.65;;;;;;;;;;5034320;28;20059;-48
2022/08/27 01:37:22;;;;;;;9.23;4.45;;;;;;;;;;5034541;28;20049;-48
2022/08/27 01:39:49;;;;;;;7.65;4.68;;;;;;;;;;5034097;28;20524;-47
2022/08/27 01:42:32;;;;;;;6.32;3.92;;;;;;;;;;5034423;28;20058;-47
2022/08/27 01:45:01;;;;;;;8.68;4.68;;;;;;;;;;5022716;28;20064;-48
2022/08/27 01:47:31;;;;;;;8.55;4.63;;;;;;;;;;5034126;28;20057;-48
2022/08/27 01:50:08;;;;;;;9.18;4.38;;;;;;;;;;5033677;28;20470;-47
2022/08/27 01:52:36;;;;;;;11.38;4.63;;;;;;;;;;5033707;28;20049;-48
2022/08/27 01:55:04;;;;;;;8.65;4.47;;;;;;;;;;5033575;28;20092;-50
2022/08/27 01:57:34;;;;;;;11.32;4.53;;;;;;;;;;5033478;28;20397;-51
2022/08/27 02:00:02;;;;;;;10.60;4.60;;;;;;;;;;5033663;28;20054;-48
2022/08/27 02:02:32;;;;;;;7.63;4.40;;;;;;;;;;5033770;28;20049;-48
2022/08/27 02:05:00;;;;;;;7.03;4.45;;;;;;;;;;5033996;28;20656;-49
2022/08/27 02:07:26;;;;;;;9.10;5.15;;;;;;;;;;5030876;28;20058;-48
2022/08/27 02:09:56;;;;;;;12.65;5.05;;;;;;;;;;5032896;28;20049;-52
2022/08/27 02:12:22;;;;;;;6.32;4.25;;;;;;;;;;5032812;28;20142;-48
2022/08/27 02:14:50;;;;;;;9.82;4.75;;;;;;;;;;5033236;28;20072;-48
2022/08/27 02:17:16;;;;;;;7.88;4.22;;;;;;;;;;5033714;28;20065;-48
2022/08/27 02:19:44;;;;;;;7.50;4.70;;;;;;;;;;5033490;28;20382;-49
2022/08/27 02:22:11;;;;;;;6.97;4.28;;;;;;;;;;5033420;28;20057;-49
2022/08/27 02:24:39;;;;;;;7.28;4.35;;;;;;;;;;5033674;28;20049;-48
2022/08/27 02:27:06;;;;;;;7.25;3.67;;;;;;;;;;5033806;28;20064;-48
2022/08/27 02:29:33;;;;;;;9.43;4.40;;;;;;;;;;5033655;28;20060;-47
2022/08/27 02:32:03;;;;;;;7.95;4.60;;;;;;;;;;5033197;28;20134;-50
2022/08/27 02:34:31;;;;;;;10.85;5.03;;;;;;;;;;5033368;28;20055;-51
2022/08/27 02:36:57;;;;;;;6.63;4.45;;;;;;;;;;5033503;28;20053;-48
2022/08/27 02:39:23;;;;;;;7.72;4.25;;;;;;;;;;5033036;28;20481;-49
2022/08/27 02:41:49;;;;;;;8.75;4.30;;;;;;;;;;5033231;28;20083;-48
2022/08/27 02:44:16;;;;;;;8.93;4.63;;;;;;;;;;5033550;28;20045;-47
2022/08/27 02:46:42;;;;;;;9.57;4.47;;;;;;;;;;5033251;28;20080;-48
2022/08/27 02:49:11;;;;;;;8.32;4.82;;;;;;;;;;5033151;28;20049;-48
2022/08/27 02:51:37;;;;;;;7.18;4.50;;;;;;;;;;5033099;28;20064;-51
2022/08/27 02:54:05;;;;;;;7.75;4.70;;;;;;;;;;5032373;28;20451;-48
2022/08/27 02:56:32;;;;;;;9.32;4.28;;;;;;;;;;5033033;28;20454;-50
2022/08/27 02:58:59;;;;;;;6.22;4.65;;;;;;;;;;5033171;28;20148;-48
2022/08/27 03:01:25;;;;;;;9.43;4.40;;;;;;;;;;5033170;28;20049;-49
2022/08/27 03:03:52;;;;;;;8.25;4.20;;;;;;;;;;5033118;28;20103;-47
2022/08/27 03:06:19;;;;;;;8.45;4.57;;;;;;;;;;5033248;28;20061;-48
2022/08/27 03:08:46;;;;;;;6.60;4.30;;;;;;;;;;5033255;28;20053;-50
2022/08/27 03:11:13;;;;;;;9.10;4.50;;;;;;;;;;5032931;28;20077;-49
2022/08/27 03:13:39;;;;;;;6.68;3.95;;;;;;;;;;5032814;28;20049;-50
2022/08/27 03:16:07;;;;;;;6.40;3.90;;;;;;;;;;5032924;28;20459;-50
2022/08/27 03:18:33;;;;;;;7.60;4.10;;;;;;;;;;5036441;28;20072;-51
2022/08/27 03:21:02;;;;;;;8.13;5.25;;;;;;;;;;5036910;28;20053;-48
2022/08/27 03:23:32;;;;;;;9.00;4.75;;;;;;;;;;5037077;28;20053;-47
2022/08/27 03:26:02;;;;;;;12.23;5.15;;;;;;;;;;5036391;28;20518;-48
2022/08/27 03:28:31;;;;;;;8.82;4.53;;;;;;;;;;5036706;28;20055;-49
2022/08/27 03:31:00;;;;;;;8.52;4.38;;;;;;;;;;5036283;28;20119;-48
2022/08/27 03:33:26;;;;;;;6.07;4.15;;;;;;;;;;5036180;28;20049;-47
2022/08/27 03:35:53;;;;;;;6.38;4.18;;;;;;;;;;5036454;28;20057;-48
2022/08/27 03:38:21;;;;;;;8.32;4.78;;;;;;;;;;5036866;28;20057;-47
2022/08/27 03:40:49;;;;;;;7.35;4.85;;;;;;;;;;5036777;28;20076;-47
2022/08/27 03:43:19;;;;;;;11.18;5.00;;;;;;;;;;5036751;28;20050;-51
2022/08/27 03:45:45;;;;;;;6.50;3.88;;;;;;;;;;5036570;28;20128;-48
2022/08/27 03:48:12;;;;;;;5.88;4.38;;;;;;;;;;5036463;28;20749;-47
2022/08/27 03:50:38;;;;;;;10.23;5.05;;;;;;;;;;5036123;28;20085;-49
2022/08/27 03:53:05;;;;;;;8.70;4.50;;;;;;;;;;5036538;28;20049;-48
2022/08/27 03:55:33;;;;;;;12.65;5.97;;;;;;;;;;5025164;28;20132;-47
2022/08/27 03:58:02;;;;;;;8.88;5.10;;;;;;;;;;5036430;28;20049;-48
2022/08/27 04:00:29;;;;;;;9.93;4.93;;;;;;;;;;5036205;28;20049;-50
2022/08/27 04:02:56;;;;;;;8.32;4.85;;;;;;;;;;5036141;28;20512;-47
2022/08/27 04:05:22;;;;;;;10.43;5.47;;;;;;;;;;5036076;28;20041;-48
2022/08/27 04:07:49;;;;;;;9.77;5.18;;;;;;;;;;5036087;28;20056;-51
2022/08/27 04:10:17;;;;;;;10.68;5.53;;;;;;;;;;5035870;28;20471;-48
2022/08/27 04:12:43;;;;;;;8.95;5.60;;;;;;;;;;5035762;28;20055;-48
2022/08/27 04:15:12;;;;;;;10.73;5.20;;;;;;;;;;5035709;28;20053;-47
2022/08/27 04:17:40;;;;;;;7.05;4.15;;;;;;;;;;5035748;28;20413;-47
2022/08/27 04:20:07;;;;;;;8.90;4.88;;;;;;;;;;5035952;28;20053;-47
2022/08/27 04:22:34;;;;;;;7.55;5.05;;;;;;;;;;5035995;28;20046;-48
2022/08/27 04:25:03;;;;;;;9.00;5.30;;;;;;;;;;5036056;28;20053;-49
2022/08/27 04:27:30;;;;;;;9.32;4.78;;;;;;;;;;5035844;28;20049;-48
2022/08/27 04:29:57;;;;;;;7.88;4.90;;;;;;;;;;5034619;28;20053;-48
2022/08/27 04:32:25;;;;;;;14.30;5.55;;;;;;;;;;5035175;28;20421;-50
2022/08/27 04:34:53;;;;;;;13.65;6.18;;;;;;;;;;5035797;28;20053;-48
2022/08/27 04:37:19;;;;;;;12.40;6.68;;;;;;;;;;5035644;28;20057;-47
2022/08/27 04:39:45;;;;;;;8.93;6.03;;;;;;;;;;5035593;28;20058;-47
2022/08/27 04:42:12;;;;;;;10.70;5.35;;;;;;;;;;5035077;28;20060;-48
2022/08/27 04:44:42;;;;;;;10.75;4.55;;;;;;;;;;5035742;28;20053;-48
2022/08/27 04:47:08;;;;;;;7.05;4.25;;;;;;;;;;5035583;28;20057;-47
2022/08/27 04:49:36;;;;;;;8.18;4.57;;;;;;;;;;5035421;28;20064;-48
2022/08/27 04:52:04;;;;;;;12.35;5.20;;;;;;;;;;5034926;28;20490;-48
2022/08/27 04:54:32;;;;;;;9.73;4.95;;;;;;;;;;5026996;28;20054;-48
2022/08/27 04:57:02;;;;;;;8.85;4.53;;;;;;;;;;5033531;28;20049;-46
2022/08/27 04:59:28;;;;;;;8.93;4.95;;;;;;;;;;5035394;28;20053;-47
2022/08/27 05:01:55;;;;;;;9.90;5.13;;;;;;;;;;5034006;28;20057;-47
2022/08/27 05:04:21;;;;;;;11.10;5.15;;;;;;;;;;5034700;28;20501;-47
2022/08/27 05:06:49;;;;;;;9.88;5.22;;;;;;;;;;5035000;28;20072;-48
2022/08/27 05:09:17;;;;;;;7.47;4.53;;;;;;;;;;5035133;28;20108;-48
2022/08/27 05:11:43;;;;;;;7.45;4.60;;;;;;;;;;5034161;28;20509;-48
2022/08/27 05:14:14;;;;;;;7.72;4.30;;;;;;;;;;5020301;28;20430;-48
2022/08/27 05:16:40;;;;;;;10.45;6.32;;;;;;;;;;5028225;28;20081;-48
2022/08/27 05:19:08;;;;;;;8.43;5.50;;;;;;;;;;5034279;28;20057;-51
2022/08/27 05:21:35;;;;;;;9.05;5.55;;;;;;;;;;5034381;28;20061;-48
2022/08/27 05:24:08;;;;;;;7.22;4.60;;;;;;;;;;5034391;28;20050;-48
2022/08/27 05:26:35;;;;;;;7.38;5.00;;;;;;;;;;5023698;28;20049;-47
2022/08/27 05:29:03;;;;;;;7.47;4.60;;;;;;;;;;5034224;28;20072;-48
2022/08/27 05:31:29;;;;;;;9.02;5.47;;;;;;;;;;5033370;28;20068;-48
2022/08/27 05:33:57;;;;;;;10.52;5.55;;;;;;;;;;5032390;28;20058;-49
2022/08/27 05:36:25;;;;;;;7.47;4.72;;;;;;;;;;5017106;28;20054;-48
2022/08/27 05:38:53;;;;;;;7.82;4.88;;;;;;;;;;5034471;28;20147;-48
2022/08/27 05:41:24;;;;;;;8.85;4.80;;;;;;;;;;5032821;28;20446;-49
2022/08/27 05:43:52;;;;;;;12.38;5.45;;;;;;;;;;5017523;28;20137;-52
2022/08/27 05:46:21;;;;;;;8.32;5.68;;;;;;;;;;5014046;28;20046;-51
2022/08/27 05:48:49;;;;;;;8.80;5.25;;;;;;;;;;5017801;28;20128;-48
2022/08/27 05:51:17;;;;;;;10.48;6.15;;;;;;;;;;5033014;28;20140;-48
2022/08/27 05:53:43;;;;;;;14.35;5.82;;;;;;;;;;5031104;28;20057;-49
2022/08/27 05:56:13;;;;;;;13.05;6.03;;;;;;;;;;5025756;28;20132;-47
2022/08/27 06:01:27;;;;;;;17.80;5.50;;;;;;;;;;5029743;28;20073;-50
2022/08/27 06:03:55;;;;;;;5.65;4.57;;;;;;;;;;5025316;28;20045;-52
2022/08/27 06:06:23;;;;;;;10.25;5.25;;;;;;;;;;5032078;28;20089;-48
2022/08/27 06:08:49;;;;;;;10.02;5.05;;;;;;;;;;5033742;28;20056;-48
2022/08/27 06:11:17;;;;;;;11.20;5.32;;;;;;;;;;5033482;28;20053;-49
2022/08/27 06:13:45;;;;;;;8.82;5.07;;;;;;;;;;5031798;28;20059;-47
2022/08/27 06:16:14;;;;;;;10.07;5.28;;;;;;;;;;5029479;28;20065;-51
2022/08/27 06:18:42;;;;;;;7.50;5.00;;;;;;;;;;5023432;28;20053;-48
2022/08/27 06:21:09;;;;;;;8.88;4.40;;;;;;;;;;5037303;28;20060;-49
2022/08/27 06:23:35;;;;;;;8.32;5.20;;;;;;;;;;5032954;28;20079;-49
2022/08/27 06:26:01;;;;;;;9.55;5.13;;;;;;;;;;5033278;28;20057;-52
2022/08/27 06:28:30;;;;;;;9.63;4.65;;;;;;;;;;5032900;28;20061;-49
2022/08/27 06:31:03;;;;;;;6.80;4.63;;;;;;;;;;5022506;28;20056;-51
2022/08/27 06:33:30;;;;;;;10.38;5.43;;;;;;;;;;5033134;28;20084;-53
2022/08/27 06:35:58;;;;;;;8.00;5.07;;;;;;;;;;5032106;28;20045;-49
2022/08/27 06:38:24;;;;;;;7.20;4.95;;;;;;;;;;5032466;28;20068;-49
2022/08/27 06:40:50;;;;;;;6.95;4.65;;;;;;;;;;5034979;28;20403;-48
2022/08/27 06:43:16;;;;;;;9.48;4.97;;;;;;;;;;5034071;28;20058;-49
2022/08/27 06:45:43;;;;;;;6.50;4.35;;;;;;;;;;5035624;28;20053;-48
2022/08/27 06:48:10;;;;;;;8.10;5.20;;;;;;;;;;5026093;28;20444;-51
2022/08/27 06:50:37;;;;;;;9.43;5.57;;;;;;;;;;5035869;28;20060;-51
2022/08/27 06:53:04;;;;;;;10.60;6.10;;;;;;;;;;5034904;28;20049;-49
2022/08/27 06:55:30;;;;;;;9.15;5.43;;;;;;;;;;5033294;28;20045;-49
2022/08/27 06:57:57;;;;;;;12.02;5.80;;;;;;;;;;5033668;28;20061;-51
2022/08/27 07:00:23;;;;;;;9.00;5.82;;;;;;;;;;5024573;28;20075;-51
2022/08/27 07:02:52;;;;;;;6.85;4.93;;;;;;;;;;5020921;28;20073;-50
2022/08/27 07:05:20;;;;;;;11.18;5.65;;;;;;;;;;5029088;28;20111;-48
2022/08/27 07:07:46;;;;;;;12.23;6.05;;;;;;;;;;5031375;28;20418;-50
2022/08/27 07:10:12;;;;;;;10.02;5.40;;;;;;;;;;5031844;28;20123;-52
2022/08/27 07:12:38;;;;;;;16.42;5.85;;;;;;;;;;5032837;28;20053;-52
2022/08/27 07:15:05;;;;;;;6.78;4.90;;;;;;;;;;5032820;28;20420;-51
2022/08/27 07:17:32;;;;;;;25.23;6.22;;;;;;;;;;5032598;28;20049;-49
2022/08/27 07:19:58;;;;;;;6.90;4.32;;;;;;;;;;5033584;28;20057;-50
2022/08/27 07:22:26;;;;;;;9.77;5.05;;;;;;;;;;5033131;28;20054;-49
2022/08/27 07:24:52;;;;;;;9.52;5.60;;;;;;;;;;5030985;28;20058;-52
2022/08/27 07:27:22;;;;;;;9.63;5.85;;;;;;;;;;5026464;28;20057;-49
2022/08/27 07:29:48;;;;;;;11.93;6.85;;;;;;;;;;5033169;28;20049;-49
2022/08/27 07:32:14;;;;;;;8.50;5.90;;;;;;;;;;5032989;28;20063;-50
2022/08/27 07:34:41;;;;;;;8.35;6.05;;;;;;;;;;5033163;28;20133;-49
2022/08/27 07:37:07;;;;;;;11.25;6.03;;;;;;;;;;5033146;28;20073;-49
2022/08/27 07:39:35;;;;;;;8.68;6.20;;;;;;;;;;5032767;28;20049;-52
2022/08/27 07:44:48;;;;;;;9.30;6.47;;;;;;;;;;5031645;28;20053;-50
2022/08/27 07:47:15;;;;;;;10.88;5.85;;;;;;;;;;5032326;28;20053;-50
2022/08/27 07:49:41;;;;;;;8.55;6.15;;;;;;;;;;5032422;28;20049;-50
2022/08/27 07:52:07;;;;;;;9.02;5.38;;;;;;;;;;5030952;28;20050;-54
2022/08/27 07:54:35;;;;;;;11.15;6.57;;;;;;;;;;5030698;28;20049;-51
2022/08/27 07:57:01;;;;;;;10.35;6.38;;;;;;;;;;5024664;28;20072;-54
2022/08/27 07:59:27;;;;;;;10.18;6.15;;;;;;;;;;5032834;28;20061;-50
2022/08/27 08:01:55;;;;;;;10.18;5.97;;;;;;;;;;5032586;28;20470;-54
2022/08/27 08:04:21;;;;;;;11.80;6.25;;;;;;;;;;5035139;28;20521;-51
2022/08/27 08:06:47;;;;;;;8.55;5.75;;;;;;;;;;5032011;28;20508;-51
2022/08/27 08:09:14;;;;;;;8.95;5.32;;;;;;;;;;5034674;28;20057;-51
2022/08/27 08:11:42;;;;;;;7.70;5.50;;;;;;;;;;5034933;28;20486;-52
2022/08/27 08:14:08;;;;;;;7.28;5.05;;;;;;;;;;5034467;28;20064;-51
2022/08/27 08:16:34;;;;;;;9.25;5.05;;;;;;;;;;5035818;28;20042;-54
2022/08/27 08:19:01;;;;;;;10.27;5.60;;;;;;;;;;5035454;28;20053;-51
2022/08/27 08:21:27;;;;;;;9.15;5.82;;;;;;;;;;5033759;28;20045;-53
2022/08/27 08:23:53;;;;;;;8.70;5.55;;;;;;;;;;5027440;28;20055;-54
2022/08/27 08:26:20;;;;;;;9.98;6.63;;;;;;;;;;5035629;28;20048;-54
2022/08/27 08:28:47;;;;;;;9.95;4.95;;;;;;;;;;5035644;28;20057;-51
2022/08/27 08:31:13;;;;;;;12.45;5.78;;;;;;;;;;5035202;28;20057;-53
2022/08/27 08:33:40;;;;;;;9.63;5.70;;;;;;;;;;5035479;28;20068;-53
2022/08/27 08:36:07;;;;;;;10.75;5.72;;;;;;;;;;5035310;28;20057;-53
2022/08/27 08:38:34;;;;;;;12.25;6.68;;;;;;;;;;5035345;28;20045;-53
2022/08/27 08:41:00;;;;;;;7.13;5.40;;;;;;;;;;5035406;28;20061;-54
2022/08/27 08:43:30;;;;;;;8.43;5.65;;;;;;;;;;5035493;28;20057;-51
2022/08/27 08:46:00;;;;;;;6.32;5.20;;;;;;;;;;5035105;28;20061;-55
2022/08/27 08:48:28;;;;;;;15.35;5.45;;;;;;;;;;5034954;28;20053;-55
2022/08/27 08:50:57;;;;;;;9.48;5.35;;;;;;;;;;5035008;28;20089;-51
2022/08/27 08:53:29;;;;;;;11.25;6.47;;;;;;;;;;5035153;28;20067;-51
2022/08/27 08:55:57;;;;;;;7.40;5.28;;;;;;;;;;5020252;28;20053;-54
2022/08/27 08:58:32;;;;;;;8.85;6.20;;;;;;;;;;5014501;28;20054;-54
2022/08/27 09:01:00;;;;;;;9.45;5.13;;;;;;;;;;5033007;28;20387;-52
2022/08/27 09:03:28;;;;;;;11.50;6.38;;;;;;;;;;5031859;28;20508;-54
2022/08/27 09:05:55;;;;;;;9.77;6.03;;;;;;;;;;5031310;28;20490;-51
2022/08/27 09:08:24;;;;;;;8.50;6.05;;;;;;;;;;5033130;28;20056;-51
2022/08/27 09:10:52;;;;;;;9.25;5.35;;;;;;;;;;5034595;28;20057;-52
2022/08/27 09:13:21;;;;;;;7.35;5.22;;;;;;;;;;5027921;28;20064;-53
2022/08/27 09:15:48;;;;;;;10.85;5.90;;;;;;;;;;5027662;28;20134;-52
2022/08/27 09:18:16;;;;;;;10.10;5.88;;;;;;;;;;5034609;28;20451;-52
2022/08/27 09:20:46;;;;;;;10.80;6.55;;;;;;;;;;5034590;28;20053;-51
2022/08/27 09:23:16;;;;;;;10.52;6.10;;;;;;;;;;5034777;28;20069;-53
2022/08/27 09:25:43;;;;;;;9.40;5.65;;;;;;;;;;5034588;28;20673;-51
2022/08/27 09:29:14;;;;;;;11.05;6.22;;;;;;;;;;5031154;28;20415;-51
2022/08/27 09:31:00;;;;;;;12.05;6.50;;;;;;;;;;5023131;28;20118;-50
2022/08/27 09:33:27;;;;;;;10.43;6.03;;;;;;;;;;5034637;28;20045;-53
2022/08/27 09:35:54;;;;;;;6.65;5.35;;;;;;;;;;5033239;28;20049;-50
2022/08/27 09:38:24;;;;;;;8.52;6.10;;;;;;;;;;5022162;28;20072;-50
2022/08/27 09:40:51;;;;;;;10.20;5.82;;;;;;;;;;5033955;28;20099;-50
2022/08/27 09:43:20;;;;;;;13.27;5.65;;;;;;;;;;5034269;28;20053;-50
2022/08/27 09:45:47;;;;;;;9.23;5.60;;;;;;;;;;5031878;28;20045;-51
2022/08/27 09:48:15;;;;;;;13.57;5.65;;;;;;;;;;5034081;28;20772;-51
2022/08/27 09:50:46;;;;;;;9.02;5.70;;;;;;;;;;5034057;28;20049;-51
2022/08/27 09:53:18;;;;;;;8.07;4.72;;;;;;;;;;5033909;28;20049;-50
2022/08/27 09:55:47;;;;;;;8.70;5.65;;;;;;;;;;5015681;28;20053;-52
2022/08/27 09:58:17;;;;;;;7.50;5.82;;;;;;;;;;5024941;28;20160;-51
2022/08/27 10:00:43;;;;;;;10.23;5.00;;;;;;;;;;5022870;28;20046;-52
2022/08/27 10:03:10;;;;;;;9.43;5.20;;;;;;;;;;5029210;28;20119;-50
2022/08/27 10:05:38;;;;;;;15.35;5.53;;;;;;;;;;5033887;28;20050;-51
2022/08/27 10:08:08;;;;;;;7.70;5.15;;;;;;;;;;5012999;28;20079;-53
2022/08/27 10:10:40;;;;;;;8.18;5.10;;;;;;;;;;5027491;28;20382;-53
2022/08/27 10:13:09;;;;;;;7.88;4.90;;;;;;;;;;5030615;28;20056;-54
2022/08/27 10:15:37;;;;;;;6.90;4.90;;;;;;;;;;5032612;28;20056;-53
2022/08/27 10:18:08;;;;;;;7.80;4.43;;;;;;;;;;5033647;28;20053;-53
2022/08/27 10:20:39;;;;;;;7.50;5.15;;;;;;;;;;5031695;28;20061;-53
2022/08/27 10:23:17;;;;;;;5.82;4.65;;;;;;;;;;5033078;28;20084;-50
2022/08/27 10:25:49;;;;;;;8.10;5.03;;;;;;;;;;5033352;28;20049;-54
2022/08/27 10:28:22;;;;;;;8.30;5.20;;;;;;;;;;5027608;28;20053;-54
2022/08/27 10:30:57;;;;;;;7.93;5.10;;;;;;;;;;5013146;28;20430;-52
2022/08/27 10:33:25;;;;;;;6.55;4.90;;;;;;;;;;5029352;28;20049;-52
2022/08/27 10:35:57;;;;;;;6.28;4.72;;;;;;;;;;5033197;28;20144;-53
2022/08/27 10:38:33;;;;;;;7.93;5.30;;;;;;;;;;5027793;28;20056;-50
2022/08/27 10:41:02;;;;;;;9.18;5.03;;;;;;;;;;5027050;28;20053;-51
2022/08/27 10:43:38;;;;;;;9.07;4.72;;;;;;;;;;5033068;28;20729;-51
2022/08/27 10:46:16;;;;;;;6.13;4.10;;;;;;;;;;5033285;28;20058;-51
2022/08/27 10:48:46;;;;;;;8.23;4.72;;;;;;;;;;5030564;28;20144;-50
2022/08/27 10:51:17;;;;;;;7.90;5.32;;;;;;;;;;5033444;28;20132;-51
2022/08/27 10:53:57;;;;;;;8.43;4.78;;;;;;;;;;5035073;28;20061;-51
2022/08/27 10:56:29;;;;;;;9.40;5.15;;;;;;;;;;5038082;28;20056;-49
2022/08/27 10:59:00;;;;;;;8.05;5.10;;;;;;;;;;5031947;28;20093;-52
2022/08/27 11:01:31;;;;;;;6.13;4.13;;;;;;;;;;5032610;28;20053;-49
2022/08/27 11:04:00;;;;;;;10.73;5.60;;;;;;;;;;5038568;28;20053;-51
2022/08/27 11:06:30;;;;;;;10.90;5.57;;;;;;;;;;5038275;28;20068;-51
2022/08/27 11:09:00;;;;;;;7.28;5.15;;;;;;;;;;5035628;28;20406;-49
2022/08/27 11:11:30;;;;;;;5.70;4.40;;;;;;;;;;5026640;28;20085;-49
2022/08/27 11:13:58;;;;;;;7.38;5.07;;;;;;;;;;5038647;28;20068;-52
2022/08/27 11:16:26;;;;;;;9.15;5.35;;;;;;;;;;5037966;28;20045;-50
2022/08/27 11:18:56;;;;;;;10.88;5.78;;;;;;;;;;5034627;28;20064;-51
2022/08/27 11:21:25;;;;;;;8.48;4.80;;;;;;;;;;5034130;28;20469;-50
2022/08/27 11:23:54;;;;;;;8.85;5.25;;;;;;;;;;5034515;28;20680;-52
2022/08/27 11:26:21;;;;;;;10.57;5.00;;;;;;;;;;5034719;28;20485;-51
2022/08/27 11:28:49;;;;;;;9.15;4.68;;;;;;;;;;5021355;28;20470;-50
2022/08/27 11:31:25;;;;;;;8.93;5.32;;;;;;;;;;5031726;28;20088;-48
2022/08/27 11:33:55;;;;;;;8.75;5.15;;;;;;;;;;5022781;28;20065;-49
2022/08/27 11:36:49;;;;;;;6.32;4.95;;;;;;;;;;5037822;28;20053;-51
2022/08/27 11:39:23;;;;;;;7.50;5.45;;;;;;;;;;4997324;28;20057;-49
2022/08/27 11:41:59;;;;;;;8.48;5.68;;;;;;;;;;5021877;28;20386;-50
2022/08/27 11:44:26;;;;;;;8.10;5.95;;;;;;;;;;5039190;28;20064;-48
2022/08/27 11:46:54;;;;;;;9.77;6.95;;;;;;;;;;5036446;28;20154;-49
2022/08/27 11:49:25;;;;;;;9.82;6.22;;;;;;;;;;5032410;28;20049;-51
2022/08/27 11:51:56;;;;;;;8.52;5.68;;;;;;;;;;5036026;28;20145;-49
2022/08/27 11:54:26;;;;;;;8.00;6.30;;;;;;;;;;5042641;28;20049;-51
2022/08/27 11:56:53;;;;;;;8.73;6.50;;;;;;;;;;5039011;28;20045;-51
2022/08/27 11:59:21;;;;;;;13.48;6.82;;;;;;;;;;5036006;28;20053;-51
2022/08/27 12:01:51;;;;;;;12.55;6.60;;;;;;;;;;5040953;28;20049;-49
2022/08/27 12:04:23;;;;;;;11.30;6.38;;;;;;;;;;5028713;28;20041;-49
2022/08/27 12:06:51;;;;;;;24.67;7.25;;;;;;;;;;5029849;28;20045;-53
2022/08/27 12:09:19;;;;;;;11.15;7.03;;;;;;;;;;5040303;28;20054;-49
2022/08/27 12:11:49;;;;;;;11.27;6.80;;;;;;;;;;5038248;28;20062;-52
2022/08/27 12:14:23;;;;;;;9.25;6.43;;;;;;;;;;5041359;28;20049;-49
2022/08/27 12:16:54;;;;;;;6.65;5.22;;;;;;;;;;5040865;28;20107;-50
2022/08/27 12:19:24;;;;;;;11.00;6.57;;;;;;;;;;5042565;28;20057;-49
2022/08/27 12:21:56;;;;;;;9.90;5.43;;;;;;;;;;5041962;28;20061;-51
2022/08/27 12:24:38;;;;;;;10.00;6.28;;;;;;;;;;5043526;28;20061;-50
2022/08/27 12:27:13;;;;;;;7.43;6.07;;;;;;;;;;5037427;28;20049;-49
2022/08/27 12:29:46;;;;;;;9.77;6.43;;;;;;;;;;5030456;28;20053;-51
2022/08/27 12:32:19;;;;;;;9.43;6.93;;;;;;;;;;5041917;28;20066;-49
2022/08/27 12:34:48;;;;;;;7.05;5.90;;;;;;;;;;5025378;28;20137;-49
2022/08/27 12:37:14;;;;;;;9.75;5.78;;;;;;;;;;5031398;28;20047;-52
2022/08/27 12:39:42;;;;;;;8.15;6.22;;;;;;;;;;5031510;28;20054;-52
2022/08/27 12:42:12;;;;;;;13.23;5.82;;;;;;;;;;5030535;28;20413;-52
2022/08/27 12:44:38;;;;;;;10.32;5.93;;;;;;;;;;5030715;28;20053;-50
2022/08/27 12:47:09;;;;;;;12.95;5.80;;;;;;;;;;5031065;28;20088;-52
2022/08/27 12:49:36;;;;;;;8.20;6.13;;;;;;;;;;5029163;28;20070;-49
2022/08/27 12:52:11;;;;;;;12.38;7.20;;;;;;;;;;5033728;28;20385;-48
2022/08/27 12:54:41;;;;;;;8.55;6.13;;;;;;;;;;5028460;28;20470;-50
2022/08/27 12:57:13;;;;;;;7.10;5.65;;;;;;;;;;5036466;28;20049;-50
2022/08/27 12:59:47;;;;;;;10.73;6.30;;;;;;;;;;5038384;28;20125;-52
2022/08/27 13:02:16;;;;;;;;;;;;;;;;;;5040703;28;20465;-48
2022/08/27 13:04:48;;;;;;;8.75;5.38;;;;;;;;;;5030711;28;19945;-48
2022/08/27 13:07:25;;;;;;;7.47;6.05;;;;;;;;;;5022819;28;20054;-48
2022/08/27 13:09:51;;;;;;;8.50;5.70;;;;;;;;;;5022205;28;20161;-48
2022/08/27 13:12:18;;;;;;;12.80;7.13;;;;;;;;;;5032445;28;20065;-48
2022/08/27 13:14:45;;;;;;;10.90;7.97;;;;;;;;;;5034847;28;20105;-48
2022/08/27 13:17:14;;;;;;;12.10;7.93;;;;;;;;;;5020591;28;20060;-48
2022/08/27 13:19:44;;;;;;;11.35;7.43;;;;;;;;;;5020820;28;20068;-48
2022/08/27 13:22:20;;;;;;;10.38;6.20;;;;;;;;;;5020970;28;20050;-49
2022/08/27 13:24:47;;;;;;;11.55;6.72;;;;;;;;;;5020415;28;20434;-50
2022/08/27 13:27:14;;;;;;;11.30;7.15;;;;;;;;;;5025766;28;20049;-48
2022/08/27 13:29:42;;;;;;;11.18;7.38;;;;;;;;;;5039994;28;20095;-51
2022/08/27 13:32:08;;;;;;;8.00;6.53;;;;;;;;;;5040458;28;20057;-48
2022/08/27 13:34:37;;;;;;;11.10;6.82;;;;;;;;;;5040050;28;20064;-49
2022/08/27 13:37:06;;;;;;;8.68;6.53;;;;;;;;;;5034681;28;20056;-50
2022/08/27 13:39:34;;;;;;;8.15;6.15;;;;;;;;;;5019301;28;20061;-51
2022/08/27 13:42:02;;;;;;;10.05;6.22;;;;;;;;;;5037703;28;20049;-49
2022/08/27 13:44:31;;;;;;;12.00;8.07;;;;;;;;;;5039060;28;20056;-50
2022/08/27 13:46:59;;;;;;;9.52;7.18;;;;;;;;;;5035287;28;20132;-49
2022/08/27 13:49:27;;;;;;;12.15;6.95;;;;;;;;;;5034671;28;20580;-48
2022/08/27 13:51:58;;;;;;;10.98;6.68;;;;;;;;;;5038121;28;20052;-48
2022/08/27 13:54:23;;;;;;;11.05;7.10;;;;;;;;;;5036950;28;20049;-49
2022/08/27 13:57:02;;;;;;;10.00;6.82;;;;;;;;;;5033456;28;20060;-50
2022/08/27 13:59:29;;;;;;;10.85;6.55;;;;;;;;;;5019669;28;20149;-51
2022/08/27 14:01:57;;;;;;;11.82;6.53;;;;;;;;;;5036044;28;20084;-48
2022/08/27 14:04:25;;;;;;;12.20;6.07;;;;;;;;;;5036171;28;20139;-49
2022/08/27 14:06:52;;;;;;;10.27;5.97;;;;;;;;;;5028794;28;20041;-48
2022/08/27 14:09:20;;;;;;;9.55;6.50;;;;;;;;;;5037049;28;20060;-50
2022/08/27 14:11:47;;;;;;;8.85;6.07;;;;;;;;;;5038548;28;20053;-51
2022/08/27 14:14:17;;;;;;;8.82;5.40;;;;;;;;;;5029524;28;20050;-51
2022/08/27 14:16:43;;;;;;;9.65;6.47;;;;;;;;;;5036412;28;20049;-48
2022/08/27 14:19:11;;;;;;;8.52;6.60;;;;;;;;;;5036624;28;20061;-51
2022/08/27 14:21:39;;;;;;;8.15;5.10;;;;;;;;;;5038607;28;20060;-48
2022/08/27 14:24:06;;;;;;;9.73;5.95;;;;;;;;;;5038384;28;20072;-51
2022/08/27 14:26:32;;;;;;;10.13;6.88;;;;;;;;;;5037089;28;20045;-48
2022/08/27 14:28:59;;;;;;;7.85;5.88;;;;;;;;;;5038560;28;20053;-50
2022/08/27 14:31:27;;;;;;;8.88;6.35;;;;;;;;;;5030365;28;20058;-49
2022/08/27 14:33:53;;;;;;;13.52;6.60;;;;;;;;;;5025728;28;20049;-48
2022/08/27 14:36:20;;;;;;;10.27;5.93;;;;;;;;;;5031375;28;20115;-49
2022/08/27 14:38:48;;;;;;;8.18;6.10;;;;;;;;;;5038006;28;20049;-48
2022/08/27 14:41:14;;;;;;;10.10;5.82;;;;;;;;;;5038364;28;20049;-48
2022/08/27 14:43:41;;;;;;;10.43;5.95;;;;;;;;;;5038454;28;20061;-50
2022/08/27 14:46:10;;;;;;;9.32;5.85;;;;;;;;;;5038945;28;20049;-51
2022/08/27 14:48:40;;;;;;;10.25;5.57;;;;;;;;;;5035270;28;20056;-51
2022/08/27 14:51:11;;;;;;;8.82;6.40;;;;;;;;;;5038836;28;20096;-49